sensor_id;sensor_type;location;lat;lon;timestamp;P1;durP1;ratioP1;P2;durP2;ratioP2
5937;SDS011;2994;51.220;4.412;2022-11-06T00:01:33;5.73;;;3.47;;
5937;SDS011;2994;51.220;4.412;2022-11-06T00:03:58;4.70;;;3.30;;
5937;SDS011;2994;51.220;4.412;2022-11-06T00:06:24;8.00;;;5.43;;
5937;SDS011;2994;51.220;4.412;2022-11-06T00:09:09;5.10;;;3.33;;
5937;SDS011;2994;51.220;4.412;2022-11-06T00:11:35;12.47;;;3.50;;
5937;SDS011;2994;51.220;4.412;2022-11-06T00:14:02;8.70;;;4.33;;
5937;SDS011;2994;51.220;4.412;2022-11-06T00:16:28;10.30;;;3.40;;
5937;SDS011;2994;51.220;4.412;2022-11-06T00:18:54;5.00;;;3.90;;
5937;SDS011;2994;51.220;4.412;2022-11-06T00:21:23;5.83;;;3.70;;
5937;SDS011;2994;51.220;4.412;2022-11-06T00:23:50;3.60;;;3.27;;
5937;SDS011;2994;51.220;4.412;2022-11-06T00:26:18;6.30;;;3.03;;
5937;SDS011;2994;51.220;4.412;2022-11-06T00:28:45;6.50;;;3.53;;
5937;SDS011;2994;51.220;4.412;2022-11-06T00:31:20;5.97;;;3.50;;
5937;SDS011;2994;51.220;4.412;2022-11-06T00:33:47;6.87;;;3.47;;
5937;SDS011;2994;51.220;4.412;2022-11-06T00:36:14;3.90;;;3.10;;
5937;SDS011;2994;51.220;4.412;2022-11-06T00:38:41;6.00;;;3.43;;
5937;SDS011;2994;51.220;4.412;2022-11-06T00:41:08;9.10;;;4.20;;
5937;SDS011;2994;51.220;4.412;2022-11-06T00:43:35;7.33;;;3.43;;
5937;SDS011;2994;51.220;4.412;2022-11-06T00:46:02;4.73;;;3.50;;
5937;SDS011;2994;51.220;4.412;2022-11-06T00:48:27;5.80;;;3.70;;
5937;SDS011;2994;51.220;4.412;2022-11-06T00:50:53;4.63;;;3.43;;
5937;SDS011;2994;51.220;4.412;2022-11-06T00:53:18;3.23;;;2.70;;
5937;SDS011;2994;51.220;4.412;2022-11-06T00:55:44;5.10;;;4.10;;
5937;SDS011;2994;51.220;4.412;2022-11-06T00:58:09;10.43;;;4.10;;
5937;SDS011;2994;51.220;4.412;2022-11-06T01:00:35;4.33;;;2.73;;
5937;SDS011;2994;51.220;4.412;2022-11-06T01:03:00;7.03;;;3.90;;
5937;SDS011;2994;51.220;4.412;2022-11-06T01:05:26;4.27;;;3.30;;
5937;SDS011;2994;51.220;4.412;2022-11-06T01:07:51;6.63;;;4.30;;
5937;SDS011;2994;51.220;4.412;2022-11-06T01:10:17;5.63;;;3.30;;
5937;SDS011;2994;51.220;4.412;2022-11-06T01:12:42;6.00;;;3.13;;
5937;SDS011;2994;51.220;4.412;2022-11-06T01:15:08;6.50;;;3.40;;
5937;SDS011;2994;51.220;4.412;2022-11-06T01:17:34;5.87;;;3.40;;
5937;SDS011;2994;51.220;4.412;2022-11-06T01:19:59;7.70;;;3.50;;
5937;SDS011;2994;51.220;4.412;2022-11-06T01:22:25;7.27;;;3.60;;
5937;SDS011;2994;51.220;4.412;2022-11-06T01:24:50;10.50;;;3.13;;
5937;SDS011;2994;51.220;4.412;2022-11-06T01:27:16;3.93;;;2.67;;
5937;SDS011;2994;51.220;4.412;2022-11-06T01:29:41;6.33;;;3.27;;
5937;SDS011;2994;51.220;4.412;2022-11-06T01:32:07;9.77;;;3.60;;
5937;SDS011;2994;51.220;4.412;2022-11-06T01:34:33;5.70;;;3.43;;
5937;SDS011;2994;51.220;4.412;2022-11-06T01:36:59;8.50;;;3.20;;
5937;SDS011;2994;51.220;4.412;2022-11-06T01:39:24;5.40;;;3.77;;
5937;SDS011;2994;51.220;4.412;2022-11-06T01:47:03;6.03;;;3.47;;
5937;SDS011;2994;51.220;4.412;2022-11-06T01:49:41;9.20;;;3.70;;
5937;SDS011;2994;51.220;4.412;2022-11-06T01:52:09;4.80;;;2.93;;
5937;SDS011;2994;51.220;4.412;2022-11-06T01:54:37;9.67;;;3.83;;
5937;SDS011;2994;51.220;4.412;2022-11-06T01:57:05;4.17;;;2.53;;
5937;SDS011;2994;51.220;4.412;2022-11-06T01:59:31;6.30;;;3.10;;
5937;SDS011;2994;51.220;4.412;2022-11-06T02:02:00;6.37;;;3.07;;
5937;SDS011;2994;51.220;4.412;2022-11-06T02:04:36;6.33;;;2.80;;
5937;SDS011;2994;51.220;4.412;2022-11-06T02:07:05;7.07;;;3.50;;
5937;SDS011;2994;51.220;4.412;2022-11-06T02:09:32;8.40;;;2.77;;
5937;SDS011;2994;51.220;4.412;2022-11-06T02:12:04;6.73;;;3.47;;
5937;SDS011;2994;51.220;4.412;2022-11-06T02:15:14;4.67;;;3.10;;
5937;SDS011;2994;51.220;4.412;2022-11-06T02:21:35;4.80;;;3.07;;
5937;SDS011;2994;51.220;4.412;2022-11-06T02:27:34;5.70;;;3.70;;
5937;SDS011;2994;51.220;4.412;2022-11-06T02:29:59;4.50;;;2.80;;
5937;SDS011;2994;51.220;4.412;2022-11-06T02:32:28;5.07;;;3.00;;
5937;SDS011;2994;51.220;4.412;2022-11-06T02:35:02;3.53;;;3.23;;
5937;SDS011;2994;51.220;4.412;2022-11-06T02:37:34;3.20;;;2.53;;
5937;SDS011;2994;51.220;4.412;2022-11-06T02:40:02;4.77;;;2.93;;
5937;SDS011;2994;51.220;4.412;2022-11-06T02:42:31;5.30;;;2.23;;
5937;SDS011;2994;51.220;4.412;2022-11-06T02:45:00;6.20;;;2.80;;
5937;SDS011;2994;51.220;4.412;2022-11-06T02:47:27;6.53;;;3.53;;
5937;SDS011;2994;51.220;4.412;2022-11-06T02:50:03;3.80;;;2.63;;
5937;SDS011;2994;51.220;4.412;2022-11-06T02:52:33;4.30;;;2.60;;
5937;SDS011;2994;51.220;4.412;2022-11-06T02:55:07;8.50;;;2.70;;
5937;SDS011;2994;51.220;4.412;2022-11-06T02:57:40;3.10;;;2.50;;
5937;SDS011;2994;51.220;4.412;2022-11-06T03:00:12;7.20;;;3.00;;
5937;SDS011;2994;51.220;4.412;2022-11-06T03:02:48;5.03;;;3.10;;
5937;SDS011;2994;51.220;4.412;2022-11-06T03:05:21;5.83;;;2.87;;
5937;SDS011;2994;51.220;4.412;2022-11-06T03:08:00;5.20;;;2.53;;
5937;SDS011;2994;51.220;4.412;2022-11-06T03:10:36;4.83;;;2.90;;
5937;SDS011;2994;51.220;4.412;2022-11-06T03:21:23;5.70;;;3.00;;
5937;SDS011;2994;51.220;4.412;2022-11-06T03:23:55;6.30;;;2.90;;
5937;SDS011;2994;51.220;4.412;2022-11-06T03:26:37;11.30;;;3.97;;
5937;SDS011;2994;51.220;4.412;2022-11-06T03:29:13;6.30;;;2.97;;
5937;SDS011;2994;51.220;4.412;2022-11-06T03:31:54;8.93;;;3.40;;
5937;SDS011;2994;51.220;4.412;2022-11-06T03:34:28;3.80;;;2.40;;
5937;SDS011;2994;51.220;4.412;2022-11-06T03:37:03;4.67;;;2.60;;
5937;SDS011;2994;51.220;4.412;2022-11-06T03:39:34;3.20;;;2.80;;
5937;SDS011;2994;51.220;4.412;2022-11-06T03:42:04;3.77;;;2.10;;
5937;SDS011;2994;51.220;4.412;2022-11-06T03:44:38;3.73;;;2.50;;
5937;SDS011;2994;51.220;4.412;2022-11-06T03:49:58;3.13;;;2.23;;
5937;SDS011;2994;51.220;4.412;2022-11-06T03:52:31;5.90;;;2.80;;
5937;SDS011;2994;51.220;4.412;2022-11-06T03:57:41;8.50;;;3.03;;
5937;SDS011;2994;51.220;4.412;2022-11-06T04:00:12;3.80;;;2.70;;
5937;SDS011;2994;51.220;4.412;2022-11-06T04:02:41;3.73;;;2.43;;
5937;SDS011;2994;51.220;4.412;2022-11-06T04:05:16;3.93;;;2.50;;
5937;SDS011;2994;51.220;4.412;2022-11-06T04:07:47;5.20;;;2.37;;
5937;SDS011;2994;51.220;4.412;2022-11-06T04:10:35;6.63;;;3.07;;
5937;SDS011;2994;51.220;4.412;2022-11-06T04:13:21;4.77;;;2.23;;
5937;SDS011;2994;51.220;4.412;2022-11-06T04:16:08;3.07;;;2.30;;
5937;SDS011;2994;51.220;4.412;2022-11-06T04:18:35;3.87;;;2.40;;
5937;SDS011;2994;51.220;4.412;2022-11-06T04:24:08;5.63;;;2.90;;
5937;SDS011;2994;51.220;4.412;2022-11-06T04:29:42;4.33;;;2.20;;
5937;SDS011;2994;51.220;4.412;2022-11-06T04:32:28;2.90;;;2.20;;
5937;SDS011;2994;51.220;4.412;2022-11-06T04:42:56;5.67;;;2.97;;
5937;SDS011;2994;51.220;4.412;2022-11-06T04:45:31;3.20;;;1.90;;
5937;SDS011;2994;51.220;4.412;2022-11-06T04:48:01;6.03;;;2.50;;
5937;SDS011;2994;51.220;4.412;2022-11-06T04:50:29;4.33;;;2.37;;
5937;SDS011;2994;51.220;4.412;2022-11-06T04:53:00;3.23;;;2.10;;
5937;SDS011;2994;51.220;4.412;2022-11-06T04:55:28;6.10;;;2.77;;
5937;SDS011;2994;51.220;4.412;2022-11-06T04:57:54;4.70;;;2.33;;
5937;SDS011;2994;51.220;4.412;2022-11-06T05:00:20;5.67;;;2.63;;
5937;SDS011;2994;51.220;4.412;2022-11-06T05:02:45;2.80;;;2.50;;
5937;SDS011;2994;51.220;4.412;2022-11-06T05:05:11;5.23;;;2.57;;
5937;SDS011;2994;51.220;4.412;2022-11-06T05:07:36;9.27;;;2.63;;
5937;SDS011;2994;51.220;4.412;2022-11-06T05:10:02;2.67;;;2.00;;
5937;SDS011;2994;51.220;4.412;2022-11-06T05:12:28;3.40;;;2.57;;
5937;SDS011;2994;51.220;4.412;2022-11-06T05:14:54;5.37;;;2.90;;
5937;SDS011;2994;51.220;4.412;2022-11-06T05:17:19;4.80;;;2.97;;
5937;SDS011;2994;51.220;4.412;2022-11-06T05:19:45;4.33;;;2.83;;
5937;SDS011;2994;51.220;4.412;2022-11-06T05:22:10;7.43;;;2.77;;
5937;SDS011;2994;51.220;4.412;2022-11-06T05:24:54;3.97;;;2.70;;
5937;SDS011;2994;51.220;4.412;2022-11-06T05:27:20;4.93;;;2.10;;
5937;SDS011;2994;51.220;4.412;2022-11-06T05:29:45;4.70;;;2.93;;
5937;SDS011;2994;51.220;4.412;2022-11-06T05:32:11;4.40;;;2.60;;
5937;SDS011;2994;51.220;4.412;2022-11-06T05:34:36;8.27;;;2.80;;
5937;SDS011;2994;51.220;4.412;2022-11-06T05:37:02;3.40;;;2.43;;
5937;SDS011;2994;51.220;4.412;2022-11-06T05:39:27;3.00;;;1.80;;
5937;SDS011;2994;51.220;4.412;2022-11-06T05:41:53;4.70;;;3.20;;
5937;SDS011;2994;51.220;4.412;2022-11-06T05:44:18;3.40;;;2.47;;
5937;SDS011;2994;51.220;4.412;2022-11-06T05:46:44;7.50;;;3.20;;
5937;SDS011;2994;51.220;4.412;2022-11-06T05:49:09;4.73;;;2.53;;
5937;SDS011;2994;51.220;4.412;2022-11-06T05:51:35;4.37;;;2.70;;
5937;SDS011;2994;51.220;4.412;2022-11-06T05:54:00;4.33;;;2.60;;
5937;SDS011;2994;51.220;4.412;2022-11-06T05:56:26;5.23;;;2.90;;
5937;SDS011;2994;51.220;4.412;2022-11-06T05:58:51;4.23;;;2.13;;
5937;SDS011;2994;51.220;4.412;2022-11-06T06:01:17;5.50;;;2.50;;
5937;SDS011;2994;51.220;4.412;2022-11-06T06:03:42;4.50;;;1.93;;
5937;SDS011;2994;51.220;4.412;2022-11-06T06:06:08;3.83;;;2.10;;
5937;SDS011;2994;51.220;4.412;2022-11-06T06:08:33;3.93;;;2.80;;
5937;SDS011;2994;51.220;4.412;2022-11-06T06:10:59;3.60;;;2.30;;
5937;SDS011;2994;51.220;4.412;2022-11-06T06:13:24;5.80;;;2.67;;
5937;SDS011;2994;51.220;4.412;2022-11-06T06:15:50;3.70;;;2.17;;
5937;SDS011;2994;51.220;4.412;2022-11-06T06:18:15;3.20;;;2.90;;
5937;SDS011;2994;51.220;4.412;2022-11-06T06:20:41;3.20;;;2.23;;
5937;SDS011;2994;51.220;4.412;2022-11-06T06:23:06;4.03;;;2.07;;
5937;SDS011;2994;51.220;4.412;2022-11-06T06:25:32;3.00;;;2.20;;
5937;SDS011;2994;51.220;4.412;2022-11-06T06:27:57;4.33;;;2.80;;
5937;SDS011;2994;51.220;4.412;2022-11-06T06:30:23;3.73;;;2.60;;
5937;SDS011;2994;51.220;4.412;2022-11-06T06:32:49;3.60;;;2.70;;
5937;SDS011;2994;51.220;4.412;2022-11-06T06:35:15;4.53;;;2.33;;
5937;SDS011;2994;51.220;4.412;2022-11-06T06:37:42;4.30;;;2.43;;
5937;SDS011;2994;51.220;4.412;2022-11-06T06:40:16;4.73;;;2.10;;
5937;SDS011;2994;51.220;4.412;2022-11-06T06:42:42;5.67;;;2.27;;
5937;SDS011;2994;51.220;4.412;2022-11-06T06:45:07;5.17;;;3.03;;
5937;SDS011;2994;51.220;4.412;2022-11-06T06:47:33;7.70;;;2.60;;
5937;SDS011;2994;51.220;4.412;2022-11-06T06:49:59;5.93;;;2.50;;
5937;SDS011;2994;51.220;4.412;2022-11-06T06:52:24;7.37;;;3.03;;
5937;SDS011;2994;51.220;4.412;2022-11-06T06:54:49;4.53;;;2.20;;
5937;SDS011;2994;51.220;4.412;2022-11-06T06:57:15;3.90;;;2.63;;
5937;SDS011;2994;51.220;4.412;2022-11-06T06:59:40;4.50;;;2.70;;
5937;SDS011;2994;51.220;4.412;2022-11-06T07:02:07;5.23;;;2.77;;
5937;SDS011;2994;51.220;4.412;2022-11-06T07:04:33;2.90;;;2.03;;
5937;SDS011;2994;51.220;4.412;2022-11-06T07:06:58;5.30;;;2.50;;
5937;SDS011;2994;51.220;4.412;2022-11-06T07:09:24;6.93;;;3.23;;
5937;SDS011;2994;51.220;4.412;2022-11-06T07:11:49;2.13;;;1.80;;
5937;SDS011;2994;51.220;4.412;2022-11-06T07:14:15;3.40;;;2.40;;
5937;SDS011;2994;51.220;4.412;2022-11-06T07:16:40;3.77;;;2.23;;
5937;SDS011;2994;51.220;4.412;2022-11-06T07:19:06;3.90;;;2.40;;
5937;SDS011;2994;51.220;4.412;2022-11-06T07:21:32;5.10;;;2.20;;
5937;SDS011;2994;51.220;4.412;2022-11-06T07:23:57;4.90;;;2.30;;
5937;SDS011;2994;51.220;4.412;2022-11-06T07:26:23;7.23;;;2.90;;
5937;SDS011;2994;51.220;4.412;2022-11-06T07:28:48;3.83;;;1.80;;
5937;SDS011;2994;51.220;4.412;2022-11-06T07:31:14;5.30;;;2.30;;
5937;SDS011;2994;51.220;4.412;2022-11-06T07:33:40;2.93;;;1.83;;
5937;SDS011;2994;51.220;4.412;2022-11-06T07:36:10;4.17;;;2.23;;
5937;SDS011;2994;51.220;4.412;2022-11-06T07:38:37;7.77;;;2.53;;
5937;SDS011;2994;51.220;4.412;2022-11-06T07:41:06;4.07;;;2.40;;
5937;SDS011;2994;51.220;4.412;2022-11-06T07:43:33;4.60;;;2.17;;
5937;SDS011;2994;51.220;4.412;2022-11-06T07:46:00;3.20;;;2.00;;
5937;SDS011;2994;51.220;4.412;2022-11-06T07:48:27;3.37;;;2.00;;
5937;SDS011;2994;51.220;4.412;2022-11-06T07:50:52;4.83;;;2.40;;
5937;SDS011;2994;51.220;4.412;2022-11-06T07:53:18;3.40;;;1.70;;
5937;SDS011;2994;51.220;4.412;2022-11-06T07:55:47;3.60;;;2.20;;
5937;SDS011;2994;51.220;4.412;2022-11-06T07:58:14;2.50;;;2.13;;
5937;SDS011;2994;51.220;4.412;2022-11-06T08:00:44;4.20;;;2.03;;
5937;SDS011;2994;51.220;4.412;2022-11-06T08:03:13;2.30;;;1.60;;
5937;SDS011;2994;51.220;4.412;2022-11-06T08:05:39;4.30;;;2.70;;
5937;SDS011;2994;51.220;4.412;2022-11-06T08:08:05;1.90;;;1.70;;
5937;SDS011;2994;51.220;4.412;2022-11-06T08:13:06;4.50;;;2.03;;
5937;SDS011;2994;51.220;4.412;2022-11-06T08:15:31;3.97;;;2.17;;
5937;SDS011;2994;51.220;4.412;2022-11-06T08:17:59;4.73;;;2.13;;
5937;SDS011;2994;51.220;4.412;2022-11-06T08:23:09;2.20;;;1.93;;
5937;SDS011;2994;51.220;4.412;2022-11-06T08:25:36;4.13;;;1.90;;
5937;SDS011;2994;51.220;4.412;2022-11-06T08:28:01;2.83;;;2.10;;
5937;SDS011;2994;51.220;4.412;2022-11-06T08:30:28;7.87;;;2.03;;
5937;SDS011;2994;51.220;4.412;2022-11-06T08:33:06;5.60;;;1.93;;
5937;SDS011;2994;51.220;4.412;2022-11-06T08:35:33;4.10;;;2.50;;
5937;SDS011;2994;51.220;4.412;2022-11-06T08:38:05;5.40;;;2.40;;
5937;SDS011;2994;51.220;4.412;2022-11-06T09:24:46;3.73;;;2.23;;
5937;SDS011;2994;51.220;4.412;2022-11-06T09:27:12;3.20;;;1.73;;
5937;SDS011;2994;51.220;4.412;2022-11-06T09:40:02;4.63;;;1.93;;
5937;SDS011;2994;51.220;4.412;2022-11-06T10:14:32;2.33;;;1.90;;
5937;SDS011;2994;51.220;4.412;2022-11-06T10:36:12;2.70;;;1.97;;
5937;SDS011;2994;51.220;4.412;2022-11-06T10:38:53;2.23;;;1.90;;
5937;SDS011;2994;51.220;4.412;2022-11-06T10:41:20;4.47;;;2.30;;
5937;SDS011;2994;51.220;4.412;2022-11-06T10:51:56;3.33;;;2.10;;
5937;SDS011;2994;51.220;4.412;2022-11-06T11:05:54;3.53;;;2.17;;
5937;SDS011;2994;51.220;4.412;2022-11-06T11:14:13;3.97;;;2.33;;
5937;SDS011;2994;51.220;4.412;2022-11-06T11:17:18;3.47;;;1.93;;
5937;SDS011;2994;51.220;4.412;2022-11-06T11:19:59;4.70;;;2.60;;
5937;SDS011;2994;51.220;4.412;2022-11-06T11:40:34;2.83;;;1.90;;
5937;SDS011;2994;51.220;4.412;2022-11-06T11:43:26;3.67;;;2.60;;
5937;SDS011;2994;51.220;4.412;2022-11-06T11:56:17;4.73;;;2.50;;
5937;SDS011;2994;51.220;4.412;2022-11-06T11:58:48;4.30;;;2.87;;
5937;SDS011;2994;51.220;4.412;2022-11-06T12:01:19;3.80;;;2.03;;
5937;SDS011;2994;51.220;4.412;2022-11-06T12:03:57;3.73;;;2.43;;
5937;SDS011;2994;51.220;4.412;2022-11-06T12:06:24;2.93;;;2.17;;
5937;SDS011;2994;51.220;4.412;2022-11-06T12:08:50;4.30;;;2.20;;
5937;SDS011;2994;51.220;4.412;2022-11-06T12:11:19;6.00;;;2.63;;
5937;SDS011;2994;51.220;4.412;2022-11-06T12:16:54;5.70;;;2.30;;
5937;SDS011;2994;51.220;4.412;2022-11-06T12:30:40;4.67;;;2.23;;
5937;SDS011;2994;51.220;4.412;2022-11-06T13:37:02;3.13;;;2.30;;
5937;SDS011;2994;51.220;4.412;2022-11-06T14:30:17;3.97;;;2.83;;
5937;SDS011;2994;51.220;4.412;2022-11-06T14:32:59;8.77;;;3.37;;
5937;SDS011;2994;51.220;4.412;2022-11-06T14:43:26;2.70;;;1.50;;
5937;SDS011;2994;51.220;4.412;2022-11-06T14:46:03;2.60;;;2.00;;
5937;SDS011;2994;51.220;4.412;2022-11-06T14:48:47;1.93;;;1.63;;
5937;SDS011;2994;51.220;4.412;2022-11-06T14:51:15;4.67;;;2.90;;
5937;SDS011;2994;51.220;4.412;2022-11-06T14:53:49;5.33;;;2.13;;
5937;SDS011;2994;51.220;4.412;2022-11-06T14:56:22;2.70;;;1.77;;
5937;SDS011;2994;51.220;4.412;2022-11-06T14:59:04;3.53;;;2.50;;
5937;SDS011;2994;51.220;4.412;2022-11-06T15:01:43;3.67;;;2.03;;
5937;SDS011;2994;51.220;4.412;2022-11-06T15:04:46;5.13;;;2.13;;
5937;SDS011;2994;51.220;4.412;2022-11-06T15:07:27;5.13;;;3.47;;
5937;SDS011;2994;51.220;4.412;2022-11-06T15:10:00;4.60;;;2.97;;
5937;SDS011;2994;51.220;4.412;2022-11-06T15:15:01;2.80;;;2.60;;
5937;SDS011;2994;51.220;4.412;2022-11-06T15:17:44;6.60;;;3.30;;
5937;SDS011;2994;51.220;4.412;2022-11-06T15:20:22;3.80;;;2.20;;
5937;SDS011;2994;51.220;4.412;2022-11-06T15:23:13;5.27;;;2.97;;
5937;SDS011;2994;51.220;4.412;2022-11-06T15:34:28;3.70;;;3.00;;
5937;SDS011;2994;51.220;4.412;2022-11-06T15:37:28;3.80;;;2.83;;
5937;SDS011;2994;51.220;4.412;2022-11-06T15:40:21;3.80;;;3.30;;
5937;SDS011;2994;51.220;4.412;2022-11-06T15:43:25;7.27;;;4.00;;
5937;SDS011;2994;51.220;4.412;2022-11-06T15:46:31;4.47;;;3.10;;
5937;SDS011;2994;51.220;4.412;2022-11-06T15:55:00;3.30;;;2.67;;
5937;SDS011;2994;51.220;4.412;2022-11-06T15:57:29;4.80;;;3.03;;
5937;SDS011;2994;51.220;4.412;2022-11-06T16:03:01;5.13;;;3.27;;
5937;SDS011;2994;51.220;4.412;2022-11-06T16:08:04;3.10;;;2.70;;
5937;SDS011;2994;51.220;4.412;2022-11-06T16:21:08;3.90;;;2.30;;
5937;SDS011;2994;51.220;4.412;2022-11-06T16:27:13;3.57;;;2.63;;
5937;SDS011;2994;51.220;4.412;2022-11-06T16:29:53;3.73;;;2.53;;
5937;SDS011;2994;51.220;4.412;2022-11-06T16:32:38;7.20;;;2.63;;
5937;SDS011;2994;51.220;4.412;2022-11-06T16:38:35;4.87;;;2.60;;
5937;SDS011;2994;51.220;4.412;2022-11-06T16:41:19;3.90;;;3.10;;
5937;SDS011;2994;51.220;4.412;2022-11-06T16:44:21;4.20;;;2.40;;
5937;SDS011;2994;51.220;4.412;2022-11-06T16:49:55;3.63;;;2.30;;
5937;SDS011;2994;51.220;4.412;2022-11-06T16:52:43;3.50;;;2.83;;
5937;SDS011;2994;51.220;4.412;2022-11-06T16:58:12;3.87;;;2.80;;
5937;SDS011;2994;51.220;4.412;2022-11-06T17:00:59;4.67;;;2.50;;
5937;SDS011;2994;51.220;4.412;2022-11-06T17:11:51;4.03;;;2.50;;
5937;SDS011;2994;51.220;4.412;2022-11-06T17:14:46;4.13;;;2.93;;
5937;SDS011;2994;51.220;4.412;2022-11-06T17:17:36;3.70;;;2.27;;
5937;SDS011;2994;51.220;4.412;2022-11-06T17:20:30;3.67;;;2.50;;
5937;SDS011;2994;51.220;4.412;2022-11-06T17:23:28;3.03;;;2.70;;
5937;SDS011;2994;51.220;4.412;2022-11-06T17:28:41;2.70;;;2.50;;
5937;SDS011;2994;51.220;4.412;2022-11-06T17:31:32;3.63;;;3.00;;
5937;SDS011;2994;51.220;4.412;2022-11-06T17:33:58;3.47;;;3.07;;
5937;SDS011;2994;51.220;4.412;2022-11-06T17:39:05;4.37;;;3.00;;
5937;SDS011;2994;51.220;4.412;2022-11-06T17:54:32;3.83;;;3.17;;
5937;SDS011;2994;51.220;4.412;2022-11-06T17:57:12;4.47;;;3.20;;
5937;SDS011;2994;51.220;4.412;2022-11-06T17:59:47;4.30;;;3.40;;
5937;SDS011;2994;51.220;4.412;2022-11-06T18:02:31;4.70;;;3.40;;
5937;SDS011;2994;51.220;4.412;2022-11-06T18:05:05;3.80;;;3.40;;
5937;SDS011;2994;51.220;4.412;2022-11-06T18:07:36;3.50;;;3.20;;
5937;SDS011;2994;51.220;4.412;2022-11-06T18:10:05;4.87;;;3.87;;
5937;SDS011;2994;51.220;4.412;2022-11-06T18:12:31;4.73;;;4.30;;
5937;SDS011;2994;51.220;4.412;2022-11-06T18:14:56;3.87;;;3.47;;
5937;SDS011;2994;51.220;4.412;2022-11-06T18:17:25;4.20;;;3.73;;
5937;SDS011;2994;51.220;4.412;2022-11-06T18:19:53;5.53;;;4.23;;
5937;SDS011;2994;51.220;4.412;2022-11-06T18:22:24;4.20;;;3.80;;
5937;SDS011;2994;51.220;4.412;2022-11-06T18:24:50;7.77;;;3.80;;
5937;SDS011;2994;51.220;4.412;2022-11-06T18:27:15;4.90;;;3.80;;
5937;SDS011;2994;51.220;4.412;2022-11-06T18:32:22;5.30;;;3.73;;
5937;SDS011;2994;51.220;4.412;2022-11-06T18:35:16;4.80;;;4.27;;
5937;SDS011;2994;51.220;4.412;2022-11-06T20:11:10;5.30;;;4.87;;
5937;SDS011;2994;51.220;4.412;2022-11-06T20:13:40;6.23;;;4.80;;
5937;SDS011;2994;51.220;4.412;2022-11-06T20:16:08;5.77;;;4.70;;
5937;SDS011;2994;51.220;4.412;2022-11-06T20:18:37;7.20;;;5.60;;
5937;SDS011;2994;51.220;4.412;2022-11-06T20:39:09;8.50;;;5.10;;
5937;SDS011;2994;51.220;4.412;2022-11-06T21:12:40;5.40;;;4.50;;
5937;SDS011;2994;51.220;4.412;2022-11-06T21:20:31;4.77;;;4.10;;
5937;SDS011;2994;51.220;4.412;2022-11-06T21:59:29;5.83;;;4.07;;
5937;SDS011;2994;51.220;4.412;2022-11-06T22:36:01;7.87;;;4.23;;
5937;SDS011;2994;51.220;4.412;2022-11-06T22:38:28;6.90;;;4.53;;
5937;SDS011;2994;51.220;4.412;2022-11-06T22:40:55;6.40;;;4.00;;
5937;SDS011;2994;51.220;4.412;2022-11-06T22:43:22;3.90;;;3.60;;
5937;SDS011;2994;51.220;4.412;2022-11-06T22:45:47;4.70;;;3.87;;
5937;SDS011;2994;51.220;4.412;2022-11-06T22:48:13;4.33;;;3.93;;
5937;SDS011;2994;51.220;4.412;2022-11-06T22:50:38;5.97;;;3.80;;
5937;SDS011;2994;51.220;4.412;2022-11-06T22:53:04;4.77;;;3.87;;
5937;SDS011;2994;51.220;4.412;2022-11-06T22:55:30;3.83;;;3.43;;
5937;SDS011;2994;51.220;4.412;2022-11-06T22:57:55;5.10;;;4.10;;
5937;SDS011;2994;51.220;4.412;2022-11-06T23:00:21;6.07;;;4.00;;
5937;SDS011;2994;51.220;4.412;2022-11-06T23:02:47;4.97;;;3.97;;
5937;SDS011;2994;51.220;4.412;2022-11-06T23:05:13;4.30;;;3.70;;
5937;SDS011;2994;51.220;4.412;2022-11-06T23:07:39;6.17;;;3.50;;
5937;SDS011;2994;51.220;4.412;2022-11-06T23:10:05;4.63;;;3.30;;
5937;SDS011;2994;51.220;4.412;2022-11-06T23:12:32;3.70;;;3.23;;
5937;SDS011;2994;51.220;4.412;2022-11-06T23:14:57;5.33;;;2.90;;
5937;SDS011;2994;51.220;4.412;2022-11-06T23:17:23;6.70;;;3.97;;
5937;SDS011;2994;51.220;4.412;2022-11-06T23:19:49;4.10;;;3.37;;
5937;SDS011;2994;51.220;4.412;2022-11-06T23:22:15;5.50;;;3.40;;
5937;SDS011;2994;51.220;4.412;2022-11-06T23:25:00;4.83;;;3.00;;
5937;SDS011;2994;51.220;4.412;2022-11-06T23:27:26;4.30;;;3.17;;
5937;SDS011;2994;51.220;4.412;2022-11-06T23:29:51;3.73;;;2.80;;
5937;SDS011;2994;51.220;4.412;2022-11-06T23:32:20;5.87;;;3.33;;
5937;SDS011;2994;51.220;4.412;2022-11-06T23:34:45;4.97;;;3.10;;
5937;SDS011;2994;51.220;4.412;2022-11-06T23:37:11;5.63;;;2.70;;
5937;SDS011;2994;51.220;4.412;2022-11-06T23:39:36;4.10;;;2.50;;
5937;SDS011;2994;51.220;4.412;2022-11-06T23:42:02;2.70;;;2.50;;
5937;SDS011;2994;51.220;4.412;2022-11-06T23:44:28;6.00;;;3.20;;
5937;SDS011;2994;51.220;4.412;2022-11-06T23:47:12;4.87;;;2.83;;
5937;SDS011;2994;51.220;4.412;2022-11-06T23:49:37;5.90;;;3.37;;
5937;SDS011;2994;51.220;4.412;2022-11-06T23:52:03;3.40;;;2.87;;
5937;SDS011;2994;51.220;4.412;2022-11-06T23:54:28;3.70;;;2.97;;
5937;SDS011;2994;51.220;4.412;2022-11-06T23:56:54;8.70;;;3.50;;
5937;SDS011;2994;51.220;4.412;2022-11-06T23:59:19;3.63;;;2.30;;
